createdAt,value
2019-03-01T00:01:34.838Z,10.10
2019-03-01T00:04:22.778Z,10.10
2019-03-01T00:07:39.705Z,10.20
2019-03-01T00:10:36.168Z,10.10
2019-03-01T00:13:51.681Z,10.20
2019-03-01T00:16:59.330Z,10.20
2019-03-01T00:20:18.306Z,10.20
2019-03-01T00:23:40.399Z,10.20
2019-03-01T00:26:37.967Z,10.20
2019-03-01T00:30:08.793Z,10.20
2019-03-01T00:33:31.221Z,10.20
2019-03-01T00:36:38.888Z,10.20
2019-03-01T00:39:54.526Z,10.20
2019-03-01T00:43:00.053Z,10.30
2019-03-01T00:45:34.202Z,10.30
2019-03-01T00:48:07.248Z,10.20
2019-03-01T00:50:39.331Z,10.20
2019-03-01T00:53:11.409Z,10.20
2019-03-01T00:55:43.347Z,10.20
2019-03-01T00:58:15.340Z,10.30
2019-03-01T01:00:49.731Z,10.30
2019-03-01T01:03:25.619Z,10.20
2019-03-01T01:05:57.690Z,10.20
2019-03-01T01:08:29.607Z,10.20
2019-03-01T01:11:01.647Z,10.10
2019-03-01T01:13:33.609Z,10.10
2019-03-01T01:16:05.881Z,10.10
2019-03-01T01:18:37.801Z,10.10
2019-03-01T01:21:09.682Z,10.10
2019-03-01T01:23:42.946Z,10.10
2019-03-01T01:26:15.068Z,10.10
2019-03-01T01:28:49.090Z,10.10
2019-03-01T01:31:22.327Z,10.10
2019-03-01T01:33:55.154Z,10.10
2019-03-01T01:36:28.391Z,10.10
2019-03-01T01:39:01.631Z,10.20
2019-03-01T01:41:35.040Z,10.20
2019-03-01T01:44:07.217Z,10.20
2019-03-01T01:46:40.144Z,10.20
2019-03-01T01:49:13.154Z,10.20
2019-03-01T01:51:45.024Z,10.20
2019-03-01T01:54:18.031Z,10.20
2019-03-01T01:56:50.077Z,10.20
2019-03-01T01:59:23.275Z,10.30
2019-03-01T02:01:58.346Z,10.20
2019-03-01T02:04:32.994Z,10.20
2019-03-01T02:07:05.162Z,10.20
2019-03-01T02:09:38.068Z,10.20
2019-03-01T02:12:10.172Z,10.20
2019-03-01T02:14:42.208Z,10.20
2019-03-01T02:17:15.435Z,10.20
2019-03-01T02:19:47.475Z,10.30
2019-03-01T02:22:19.379Z,10.30
2019-03-01T02:24:51.399Z,10.30
2019-03-01T02:27:25.201Z,10.20
2019-03-01T02:29:57.744Z,10.30
2019-03-01T02:32:34.752Z,10.30
2019-03-01T02:35:08.133Z,10.30
2019-03-01T02:37:40.226Z,10.30
2019-03-01T02:40:12.950Z,10.20
2019-03-01T02:42:45.123Z,10.30
2019-03-01T02:45:19.026Z,10.20
2019-03-01T02:47:52.200Z,10.20
2019-03-01T02:50:25.332Z,10.20
2019-03-01T02:52:59.453Z,10.20
2019-03-01T02:55:31.531Z,10.20
2019-03-01T02:58:03.575Z,10.20
2019-03-01T03:00:35.571Z,10.20
2019-03-01T03:03:07.458Z,10.10
2019-03-01T03:06:00.310Z,10.10
2019-03-01T03:08:33.559Z,10.10
2019-03-01T03:11:05.660Z,10.10
2019-03-01T03:13:37.814Z,10.10
2019-03-01T03:16:13.815Z,10.10
2019-03-01T03:18:47.003Z,10.10
2019-03-01T03:21:18.941Z,10.10
2019-03-01T03:23:51.558Z,10.10
2019-03-01T03:26:25.521Z,10.10
2019-03-01T03:28:58.431Z,10.00
2019-03-01T03:31:30.403Z,10.00
2019-03-01T03:34:02.597Z,10.00
2019-03-01T03:36:34.741Z,10.00
2019-03-01T03:39:09.154Z,9.90
2019-03-01T03:41:41.247Z,9.90
2019-03-01T03:44:14.795Z,9.90
2019-03-01T03:46:46.917Z,9.90
2019-03-01T03:49:21.266Z,9.80
2019-03-01T03:51:53.346Z,9.80
2019-03-01T03:54:25.458Z,9.80
2019-03-01T03:56:57.860Z,9.70
2019-03-01T03:59:29.843Z,9.70
2019-03-01T04:02:03.108Z,9.70
2019-03-01T04:04:36.382Z,9.70
2019-03-01T04:07:08.429Z,9.60
2019-03-01T04:09:43.368Z,9.50
2019-03-01T04:12:17.593Z,9.50
2019-03-01T04:14:49.844Z,9.50
2019-03-01T04:17:21.737Z,9.30
2019-03-01T04:19:53.832Z,9.20
2019-03-01T04:22:26.041Z,9.10
2019-03-01T04:24:58.184Z,9.10
2019-03-01T04:27:31.650Z,9.00
2019-03-01T04:30:03.600Z,9.00
2019-03-01T04:32:36.866Z,9.10
2019-03-01T04:35:09.128Z,9.00
2019-03-01T04:37:41.174Z,9.00
2019-03-01T04:40:13.678Z,8.90
2019-03-01T04:42:46.735Z,8.90
2019-03-01T04:45:18.732Z,8.80
2019-03-01T04:47:51.984Z,8.80
2019-03-01T04:50:24.057Z,8.80
2019-03-01T04:52:56.150Z,8.80
2019-03-01T04:55:29.412Z,8.80
2019-03-01T04:58:01.529Z,8.80
2019-03-01T05:00:34.849Z,8.90
2019-03-01T05:03:08.216Z,8.90
2019-03-01T05:05:41.210Z,9.00
2019-03-01T05:08:13.303Z,9.00
2019-03-01T05:10:46.580Z,9.00
2019-03-01T05:13:19.800Z,9.00
2019-03-01T05:15:51.938Z,9.00
2019-03-01T05:18:24.148Z,9.00
2019-03-01T05:20:56.111Z,9.00
2019-03-01T05:23:29.271Z,9.00
2019-03-01T05:26:01.319Z,9.00
2019-03-01T05:28:33.402Z,9.00
2019-03-01T05:31:05.556Z,9.10
2019-03-01T05:33:39.115Z,9.00
2019-03-01T05:36:15.417Z,9.10
2019-03-01T05:38:48.765Z,9.10
2019-03-01T05:41:20.989Z,9.20
2019-03-01T05:43:54.319Z,9.10
2019-03-01T05:46:26.589Z,9.20
2019-03-01T05:48:58.755Z,9.20
2019-03-01T05:51:30.857Z,9.30
2019-03-01T05:54:02.965Z,9.30
2019-03-01T05:56:35.311Z,9.30
2019-03-01T05:59:14.174Z,9.30
2019-03-01T06:02:26.307Z,9.40
2019-03-01T06:05:04.496Z,9.40
2019-03-01T06:08:22.117Z,9.40
2019-03-01T06:11:33.903Z,9.40
2019-03-01T06:14:40.251Z,9.40
2019-03-01T06:17:51.904Z,9.40
2019-03-01T06:20:53.680Z,9.40
2019-03-01T06:23:56.953Z,9.40
2019-03-01T06:27:00.793Z,9.40
2019-03-01T06:29:55.263Z,9.40
2019-03-01T06:33:20.451Z,9.40
2019-03-01T06:36:03.362Z,9.40
2019-03-01T06:39:21.600Z,9.50
2019-03-01T06:42:32.402Z,9.50
2019-03-01T06:45:43.002Z,9.50
2019-03-01T06:48:23.734Z,9.60
2019-03-01T06:51:00.716Z,9.60
2019-03-01T06:53:33.664Z,9.70
2019-03-01T06:56:07.023Z,9.70
2019-03-01T06:58:50.513Z,9.70
2019-03-01T07:01:28.023Z,9.70
2019-03-01T07:04:14.433Z,9.70
2019-03-01T07:06:46.620Z,9.70
2019-03-01T07:09:18.625Z,9.70
2019-03-01T07:11:51.708Z,9.70
2019-03-01T07:14:23.834Z,9.80
2019-03-01T07:16:56.934Z,9.80
2019-03-01T07:19:28.985Z,9.80
2019-03-01T07:22:02.209Z,9.90
2019-03-01T07:24:34.209Z,9.90
2019-03-01T07:27:07.356Z,10.10
2019-03-01T07:29:39.636Z,10.20
2019-03-01T07:32:11.722Z,10.30
2019-03-01T07:34:45.043Z,10.50
2019-03-01T07:37:17.219Z,10.60
2019-03-01T07:39:49.208Z,10.70
2019-03-01T07:42:21.333Z,10.70
2019-03-01T07:44:53.264Z,10.80
2019-03-01T07:47:25.473Z,10.70
2019-03-01T07:49:57.749Z,10.80
2019-03-01T07:52:29.705Z,10.80
2019-03-01T07:55:01.679Z,10.90
2019-03-01T07:57:34.589Z,10.90
2019-03-01T08:00:10.865Z,10.90
2019-03-01T08:02:45.677Z,11.00
2019-03-01T08:05:18.789Z,11.10
2019-03-01T08:07:56.164Z,11.00
2019-03-01T08:10:24.850Z,11.00
2019-03-01T08:12:56.894Z,11.00
2019-03-01T08:15:28.962Z,10.90
2019-03-01T08:18:04.720Z,10.90
2019-03-01T08:20:36.139Z,10.80
2019-03-01T08:23:09.433Z,10.90
2019-03-01T08:25:42.469Z,10.90
2019-03-01T08:28:14.826Z,11.00
2019-03-01T08:30:46.942Z,11.20
2019-03-01T08:33:18.999Z,11.30
2019-03-01T08:35:51.073Z,11.40
2019-03-01T08:38:25.478Z,11.50
2019-03-01T08:40:59.100Z,11.50
2019-03-01T08:43:32.407Z,11.50
2019-03-01T08:46:05.378Z,11.50
2019-03-01T08:48:38.251Z,11.50
2019-03-01T08:51:10.179Z,11.50
2019-03-01T08:53:43.025Z,11.50
2019-03-01T08:56:15.529Z,11.40
2019-03-01T08:58:47.893Z,11.40
2019-03-01T09:01:21.207Z,11.40
2019-03-01T09:03:57.685Z,11.30
2019-03-01T09:06:29.779Z,11.20
2019-03-01T09:09:01.791Z,11.10
2019-03-01T09:11:35.501Z,10.90
2019-03-01T09:14:07.478Z,10.70
2019-03-01T09:16:40.930Z,10.50
2019-03-01T09:19:13.479Z,10.40
2019-03-01T09:21:50.245Z,10.40
2019-03-01T09:24:20.950Z,10.60
2019-03-01T09:26:55.228Z,10.90
2019-03-01T09:29:27.110Z,11.10
2019-03-01T09:31:59.138Z,11.10
2019-03-01T09:34:33.055Z,11.10
2019-03-01T09:37:06.390Z,11.00
2019-03-01T09:39:40.110Z,10.90
2019-03-01T09:42:15.613Z,10.80
2019-03-01T09:44:47.736Z,10.70
2019-03-01T09:47:20.863Z,10.60
2019-03-01T09:49:56.610Z,10.60
2019-03-01T09:52:28.858Z,10.60
2019-03-01T09:55:00.912Z,10.60
2019-03-01T09:57:33.191Z,10.50
2019-03-01T10:00:06.109Z,10.50
2019-03-01T10:02:41.226Z,10.40
2019-03-01T10:05:14.200Z,10.30
2019-03-01T10:07:46.355Z,10.30
2019-03-01T10:10:22.000Z,10.30
2019-03-01T10:12:54.100Z,10.30
2019-03-01T10:15:26.219Z,10.40
2019-03-01T10:18:00.712Z,10.50
2019-03-01T10:20:32.667Z,10.60
2019-03-01T10:23:04.842Z,10.80
2019-03-01T10:25:36.829Z,10.90
2019-03-01T10:28:08.826Z,11.10
2019-03-01T10:30:42.292Z,11.30
2019-03-01T10:33:14.537Z,11.50
2019-03-01T10:35:47.657Z,11.80
2019-03-01T10:38:19.752Z,12.00
2019-03-01T10:40:54.367Z,12.00
2019-03-01T10:43:27.399Z,12.10
2019-03-01T10:46:00.712Z,12.20
2019-03-01T10:48:32.676Z,12.10
2019-03-01T10:51:04.695Z,12.00
2019-03-01T10:53:39.100Z,11.90
2019-03-01T10:56:11.281Z,11.90
2019-03-01T10:58:43.423Z,12.20
2019-03-01T11:01:15.671Z,12.40
2019-03-01T11:03:47.865Z,12.40
2019-03-01T11:06:19.980Z,12.30
2019-03-01T11:08:52.251Z,12.30
2019-03-01T11:11:25.316Z,12.40
2019-03-01T11:13:58.270Z,12.20
2019-03-01T11:16:30.320Z,12.20
2019-03-01T11:19:03.929Z,12.30
2019-03-01T11:21:36.239Z,12.40
2019-03-01T11:24:10.611Z,12.80
2019-03-01T11:26:42.463Z,13.20
2019-03-01T11:29:14.854Z,13.50
2019-03-01T11:31:48.185Z,13.60
2019-03-01T11:34:20.280Z,13.70
2019-03-01T11:36:52.680Z,13.90
2019-03-01T11:39:24.956Z,14.00
2019-03-01T11:41:56.797Z,14.10
2019-03-01T11:44:29.786Z,14.10
2019-03-01T11:47:04.548Z,14.10
2019-03-01T11:49:36.478Z,14.20
2019-03-01T11:52:08.395Z,14.40
2019-03-01T11:54:40.271Z,14.50
2019-03-01T11:57:13.155Z,14.70
2019-03-01T11:59:45.082Z,14.80
2019-03-01T12:02:16.849Z,14.50
2019-03-01T12:04:48.663Z,14.30
2019-03-01T12:07:20.553Z,14.10
2019-03-01T12:09:52.430Z,13.80
2019-03-01T12:12:24.409Z,13.50
2019-03-01T12:14:56.281Z,13.30
2019-03-01T12:17:29.152Z,12.90
2019-03-01T12:20:01.045Z,12.70
2019-03-01T12:22:32.925Z,12.70
2019-03-01T12:25:04.902Z,12.90
2019-03-01T12:27:37.035Z,13.10
2019-03-01T12:30:11.891Z,13.20
2019-03-01T12:32:43.786Z,13.00
2019-03-01T12:35:15.640Z,12.80
2019-03-01T12:37:47.533Z,12.60
2019-03-01T12:40:24.281Z,12.50
2019-03-01T12:42:56.077Z,12.40
2019-03-01T12:45:27.994Z,12.50
2019-03-01T12:47:59.869Z,12.60
2019-03-01T12:50:31.691Z,12.80
2019-03-01T12:53:03.593Z,12.80
2019-03-01T12:55:35.459Z,12.80
2019-03-01T12:58:07.333Z,12.90
2019-03-01T13:00:39.312Z,12.90
2019-03-01T13:03:11.196Z,12.80
2019-03-01T13:05:43.126Z,12.80
2019-03-01T13:08:15.754Z,12.80
2019-03-01T13:10:48.502Z,12.80
2019-03-01T13:13:20.393Z,12.90
2019-03-01T13:15:52.450Z,12.80
2019-03-01T13:18:24.282Z,12.80
2019-03-01T13:20:56.201Z,12.90
2019-03-01T13:23:28.001Z,12.90
2019-03-01T13:26:03.029Z,13.00
2019-03-01T13:28:33.363Z,13.00
2019-03-01T13:31:08.257Z,12.80
2019-03-01T13:33:38.705Z,12.50
2019-03-01T13:36:10.871Z,12.30
2019-03-01T13:38:43.914Z,12.20
2019-03-01T13:41:15.798Z,12.00
2019-03-01T13:43:47.675Z,11.80
2019-03-01T13:46:19.487Z,11.70
2019-03-01T13:48:54.187Z,11.70
2019-03-01T13:51:24.785Z,11.60
2019-03-01T13:53:56.581Z,11.70
2019-03-01T13:56:28.468Z,11.60
2019-03-01T13:59:03.070Z,11.70
2019-03-01T14:01:34.909Z,11.70
2019-03-01T14:04:06.775Z,11.80
2019-03-01T14:06:38.672Z,11.90
2019-03-01T14:09:15.068Z,11.90
2019-03-01T14:11:46.933Z,12.10
2019-03-01T14:14:19.718Z,12.20
2019-03-01T14:16:51.537Z,12.30
2019-03-01T14:19:23.409Z,12.40
2019-03-01T14:21:55.293Z,12.50
2019-03-01T14:24:29.520Z,12.60
2019-03-01T14:27:00.690Z,12.70
2019-03-01T14:29:32.521Z,12.70
2019-03-01T14:32:06.011Z,12.60
2019-03-01T14:34:37.799Z,12.70
2019-03-01T14:37:10.666Z,12.70
2019-03-01T14:39:45.382Z,12.70
2019-03-01T14:42:16.050Z,12.70
2019-03-01T14:44:47.874Z,12.80
2019-03-01T14:47:19.775Z,12.80
2019-03-01T14:49:54.018Z,12.80
2019-03-01T14:52:25.057Z,12.60
2019-03-01T14:54:56.879Z,12.50
2019-03-01T14:57:31.924Z,12.40
2019-03-01T15:00:30.774Z,12.20
2019-03-01T15:03:40.640Z,12.00
2019-03-01T15:06:15.369Z,11.70
2019-03-01T15:08:46.155Z,11.40
2019-03-01T15:11:20.107Z,11.10
2019-03-01T15:14:04.855Z,10.90
2019-03-01T15:16:39.346Z,10.80
2019-03-01T15:19:11.545Z,10.70
2019-03-01T15:21:43.409Z,10.60
2019-03-01T15:24:15.316Z,10.60
2019-03-01T15:26:47.162Z,10.50
2019-03-01T15:29:19.055Z,10.50
2019-03-01T15:31:51.061Z,10.50
2019-03-01T15:34:25.194Z,10.60
2019-03-01T15:36:59.177Z,10.60
2019-03-01T15:39:30.516Z,10.60
2019-03-01T15:42:02.345Z,10.60
2019-03-01T15:44:34.217Z,10.60
2019-03-01T15:47:06.342Z,10.70
2019-03-01T15:49:38.228Z,10.70
2019-03-01T15:52:13.938Z,10.70
2019-03-01T15:54:44.589Z,10.70
2019-03-01T15:57:18.856Z,10.70
2019-03-01T15:59:49.835Z,10.70
2019-03-01T16:02:21.642Z,10.70
2019-03-01T16:04:53.490Z,10.70
2019-03-01T16:07:25.364Z,10.60
2019-03-01T16:09:58.315Z,10.60
2019-03-01T16:12:32.343Z,10.60
2019-03-01T16:15:04.533Z,10.60
2019-03-01T16:17:36.599Z,10.60
2019-03-01T16:20:11.324Z,10.50
2019-03-01T16:22:44.283Z,10.50
2019-03-01T16:25:20.440Z,10.40
2019-03-01T16:27:53.875Z,10.40
2019-03-01T16:30:25.314Z,10.30
2019-03-01T16:32:57.202Z,10.30
2019-03-01T16:35:29.086Z,10.30
2019-03-01T16:38:02.432Z,10.20
2019-03-01T16:40:35.061Z,10.20
2019-03-01T16:43:06.950Z,10.10
2019-03-01T16:45:38.787Z,10.10
2019-03-01T16:48:16.888Z,10.00
2019-03-01T16:50:47.294Z,9.90
2019-03-01T16:53:19.241Z,9.90
2019-03-01T16:55:51.216Z,9.80
2019-03-01T16:58:24.503Z,9.80
2019-03-01T17:00:56.514Z,9.70
2019-03-01T17:03:28.323Z,9.60
2019-03-01T17:06:00.164Z,9.50
2019-03-01T17:08:31.953Z,9.50
2019-03-01T17:11:05.791Z,9.40
2019-03-01T17:13:37.484Z,9.40
2019-03-01T17:16:09.300Z,9.30
2019-03-01T17:18:41.103Z,9.30
2019-03-01T17:21:15.637Z,9.20
2019-03-01T17:23:46.604Z,9.30
2019-03-01T17:26:18.583Z,9.20
2019-03-01T17:28:50.468Z,9.30
2019-03-01T17:31:23.217Z,9.20
2019-03-01T17:33:55.677Z,9.20
2019-03-01T17:36:27.561Z,9.30
2019-03-01T17:38:59.390Z,9.30
2019-03-01T17:41:31.239Z,9.30
2019-03-01T17:44:04.937Z,9.30
2019-03-01T17:46:36.654Z,9.20
2019-03-01T17:49:09.262Z,9.30
2019-03-01T17:51:42.103Z,9.30
2019-03-01T17:54:13.990Z,9.30
2019-03-01T17:56:45.755Z,9.30
2019-03-01T17:59:17.594Z,9.30
2019-03-01T18:01:49.480Z,9.20
2019-03-01T18:04:21.266Z,9.30
2019-03-01T18:06:53.126Z,9.30
2019-03-01T18:09:25.043Z,9.30
2019-03-01T18:11:56.971Z,9.30
2019-03-01T18:14:28.998Z,9.30
2019-03-01T18:17:01.300Z,9.30
2019-03-01T18:19:33.616Z,9.30
2019-03-01T18:22:07.952Z,9.20
2019-03-01T18:24:39.856Z,9.20
2019-03-01T18:27:18.002Z,9.20
2019-03-01T18:29:47.326Z,9.10
2019-03-01T18:32:19.742Z,9.00
2019-03-01T18:34:53.171Z,9.00
2019-03-01T18:37:25.172Z,8.90
2019-03-01T18:39:58.632Z,8.90
2019-03-01T18:42:30.648Z,8.80
2019-03-01T18:45:03.498Z,8.80
2019-03-01T18:47:38.127Z,8.80
2019-03-01T18:50:13.843Z,8.80
2019-03-01T18:52:46.179Z,8.80
2019-03-01T18:55:18.506Z,8.70
2019-03-01T18:57:54.237Z,8.70
2019-03-01T19:00:35.657Z,8.70
2019-03-01T19:03:06.907Z,8.70
2019-03-01T19:05:41.317Z,8.80
2019-03-01T19:08:14.724Z,8.70
2019-03-01T19:10:53.878Z,8.70
2019-03-01T19:13:24.554Z,8.70
2019-03-01T19:15:55.787Z,8.60
2019-03-01T19:18:28.749Z,8.60
2019-03-01T19:21:00.955Z,8.60
2019-03-01T19:23:33.378Z,8.50
2019-03-01T19:26:05.553Z,8.50
2019-03-01T19:28:37.614Z,8.50
2019-03-01T19:31:09.600Z,8.50
2019-03-01T19:33:41.838Z,8.50
2019-03-01T19:36:14.188Z,8.50
2019-03-01T19:38:47.738Z,8.50
2019-03-01T19:41:22.958Z,8.50
2019-03-01T19:43:57.608Z,8.50
2019-03-01T19:46:28.714Z,8.50
2019-03-01T19:49:03.420Z,8.60
2019-03-01T19:51:37.530Z,8.50
2019-03-01T19:54:09.668Z,8.60
2019-03-01T19:56:41.787Z,8.60
2019-03-01T19:59:13.930Z,8.60
2019-03-01T20:01:49.502Z,8.60
2019-03-01T20:04:22.299Z,8.70
2019-03-01T20:06:55.803Z,8.60
2019-03-01T20:09:29.027Z,8.70
2019-03-01T20:12:02.695Z,8.60
2019-03-01T20:14:36.234Z,8.70
2019-03-01T20:17:08.268Z,8.70
2019-03-01T20:19:40.392Z,8.70
2019-03-01T20:22:15.481Z,8.70
2019-03-01T20:24:48.895Z,8.70
2019-03-01T20:27:21.023Z,8.70
2019-03-01T20:29:53.463Z,8.70
2019-03-01T20:32:26.578Z,8.70
2019-03-01T20:34:59.823Z,8.70
2019-03-01T20:37:31.735Z,8.70
2019-03-01T20:40:03.982Z,8.70
2019-03-01T20:42:38.654Z,8.60
2019-03-01T20:45:13.640Z,8.60
2019-03-01T20:47:45.970Z,8.70
2019-03-01T20:50:19.620Z,8.70
2019-03-01T20:52:51.928Z,8.70
2019-03-01T20:55:26.007Z,8.70
2019-03-01T20:57:59.786Z,8.70
2019-03-01T21:00:32.230Z,8.80
2019-03-01T21:03:04.367Z,8.80
2019-03-01T21:05:36.624Z,8.80
2019-03-01T21:08:08.763Z,8.90
2019-03-01T21:10:42.105Z,8.80
2019-03-01T21:13:14.376Z,8.80
2019-03-01T21:15:46.514Z,8.70
2019-03-01T21:18:25.046Z,8.70
2019-03-01T21:20:58.314Z,8.60
2019-03-01T21:23:31.242Z,8.60
2019-03-01T21:26:03.523Z,8.50
2019-03-01T21:28:36.596Z,8.50
2019-03-01T21:31:09.947Z,8.50
2019-03-01T21:33:42.908Z,8.40
2019-03-01T21:36:16.199Z,8.40
2019-03-01T21:38:49.183Z,8.40
2019-03-01T21:41:21.867Z,8.40
2019-03-01T21:43:53.830Z,8.40
2019-03-01T21:46:25.853Z,8.30
2019-03-01T21:49:00.545Z,8.30
2019-03-01T21:51:34.809Z,8.30
2019-03-01T21:54:06.590Z,8.40
2019-03-01T21:56:39.540Z,8.30
2019-03-01T21:59:13.692Z,8.30
2019-03-01T22:01:46.552Z,8.30
2019-03-01T22:04:19.530Z,8.30
2019-03-01T22:06:56.079Z,8.30
2019-03-01T22:09:27.780Z,8.20
2019-03-01T22:11:59.836Z,8.30
2019-03-01T22:14:32.960Z,8.20
2019-03-01T22:17:06.283Z,8.20
2019-03-01T22:19:38.293Z,8.20
2019-03-01T22:22:10.387Z,8.20
2019-03-01T22:24:42.332Z,8.10
2019-03-01T22:27:15.560Z,8.10
2019-03-01T22:29:48.694Z,8.10
2019-03-01T22:32:20.701Z,8.20
2019-03-01T22:34:52.822Z,8.20
2019-03-01T22:37:28.248Z,8.10
2019-03-01T22:39:59.707Z,8.10
2019-03-01T22:42:32.008Z,8.10
2019-03-01T22:45:05.046Z,8.10
2019-03-01T22:47:38.442Z,8.10
2019-03-01T22:50:12.609Z,8.10
2019-03-01T22:52:44.598Z,8.10
2019-03-01T22:55:17.755Z,8.10
2019-03-01T22:57:51.886Z,8.00
2019-03-01T23:01:29.572Z,8.00
2019-03-01T23:04:03.576Z,8.00
2019-03-01T23:06:36.706Z,8.00
2019-03-01T23:09:14.604Z,8.00
2019-03-01T23:11:46.773Z,8.00
2019-03-01T23:14:18.727Z,8.00
2019-03-01T23:16:54.457Z,8.00
2019-03-01T23:19:25.610Z,7.90
2019-03-01T23:21:57.608Z,7.90
2019-03-01T23:24:31.657Z,7.90
2019-03-01T23:27:06.310Z,7.90
2019-03-01T23:29:39.324Z,7.90
2019-03-01T23:32:15.562Z,7.90
2019-03-01T23:34:46.007Z,7.90
2019-03-01T23:37:18.112Z,7.90
2019-03-01T23:39:52.599Z,7.90
2019-03-01T23:42:25.619Z,7.90
2019-03-01T23:44:58.829Z,7.90
2019-03-01T23:47:30.737Z,7.90
2019-03-01T23:50:03.902Z,7.90
2019-03-01T23:52:38.278Z,7.90
2019-03-01T23:55:10.419Z,7.90
2019-03-01T23:57:42.283Z,7.90
